Time;durP1;ratioP1;P1;durP2;ratioP2;P2;SDS_P1;SDS_P2;PMS_P1;PMS_P2;Temp;Humidity;BMP_temperature;BMP_pressure;BME280_temperature;BME280_humidity;BME280_pressure;Samples;Min_cycle;Max_cycle;Signal;HPM_P1;HPM_P2
2022/08/04 00:02:12;;;;;;;5.90;1.77;;;;;;;20.88;89.19;100419.09;5055613;28;20146;-81
2022/08/04 00:04:52;;;;;;;6.07;1.92;;;;;;;20.78;89.27;100421.97;5054934;28;20036;-81
2022/08/04 00:07:31;;;;;;;10.82;1.88;;;;;;;20.71;89.53;100420.13;5054463;28;20107;-81
2022/08/04 00:10:04;;;;;;;5.80;1.63;;;;;;;20.69;89.05;100422.97;5054911;28;20024;-81
2022/08/04 00:12:34;;;;;;;9.95;2.22;;;;;;;20.64;89.12;100417.31;5055081;28;20064;-80
2022/08/04 00:15:02;;;;;;;6.45;1.42;;;;;;;20.69;89.26;100411.47;5054797;28;20025;-80
2022/08/04 00:17:37;;;;;;;7.95;1.65;;;;;;;20.69;88.60;100411.47;5055060;28;20021;-80
2022/08/04 00:20:05;;;;;;;11.75;2.03;;;;;;;20.43;89.93;100404.47;5054956;28;20025;-80
2022/08/04 00:22:33;;;;;;;8.02;1.65;;;;;;;20.49;89.99;100406.47;5053173;28;20028;-80
2022/08/04 00:25:03;;;;;;;13.80;2.30;;;;;;;20.57;89.52;100413.63;5054705;28;20044;-80
2022/08/04 00:27:30;;;;;;;9.20;2.53;;;;;;;20.51;90.16;100408.97;5054588;28;20029;-80
2022/08/04 00:29:56;;;;;;;8.23;1.63;;;;;;;20.44;89.13;100400.81;5054698;28;20021;-80
2022/08/04 00:32:22;;;;;;;9.77;2.08;;;;;;;20.50;89.41;100405.47;5054650;28;20138;-82
2022/08/04 00:34:48;;;;;;;6.50;1.40;;;;;;;20.49;89.65;100406.47;5054503;28;20029;-80
2022/08/04 00:37:14;;;;;;;7.28;1.60;;;;;;;20.38;89.89;100409.50;5052724;28;20036;-80
2022/08/04 00:39:40;;;;;;;8.48;2.17;;;;;;;20.30;90.23;100409.47;5054303;28;20021;-80
2022/08/04 00:42:21;;;;;;;7.68;1.35;;;;;;;20.46;89.48;100406.81;5054255;28;20064;-80
2022/08/04 00:45:28;;;;;;;7.93;1.42;;;;;;;20.40;89.94;100412.84;5054261;28;20036;-80
2022/08/04 00:47:53;;;;;;;12.20;1.90;;;;;;;20.19;88.74;100411.50;5043914;28;20037;-80
2022/08/04 00:50:48;;;;;;;8.05;1.75;;;;;;;20.16;91.19;100411.84;5054224;28;20090;-80
2022/08/04 00:53:39;;;;;;;7.78;1.48;;;;;;;20.19;90.26;100406.16;5072934;28;20079;-80
2022/08/04 00:56:31;;;;;;;9.65;1.60;;;;;;;20.13;90.39;100401.50;5074261;28;20021;-79
2022/08/04 00:59:30;;;;;;;7.05;1.38;;;;;;;20.08;90.82;100400.31;5063443;28;20047;-80
2022/08/04 01:02:10;;;;;;;8.82;1.88;;;;;;;19.93;91.24;100401.00;5052986;28;20094;-80
2022/08/04 01:04:54;;;;;;;6.50;1.35;;;;;;;19.95;91.18;100408.81;5052830;28;20021;-80
2022/08/04 01:07:28;;;;;;;8.93;1.90;;;;;;;19.53;92.75;100407.03;5053759;28;20088;-80
2022/08/04 01:10:22;;;;;;;7.00;1.95;;;;;;;19.70;90.94;100410.59;5053809;28;20029;-80
2022/08/04 01:13:25;;;;;;;6.28;1.83;;;;;;;19.67;91.65;100406.44;5053782;28;20060;-80
2022/08/04 01:15:50;;;;;;;5.28;1.52;;;;;;;19.50;91.87;100404.72;5053746;28;20020;-80
2022/08/04 01:18:32;;;;;;;8.27;2.03;;;;;;;19.66;91.70;100410.06;5053630;28;20498;-81
2022/08/04 01:21:37;;;;;;;5.95;1.30;;;;;;;19.74;90.99;100401.28;5053741;28;20136;-81
2022/08/04 01:24:28;;;;;;;7.47;1.50;;;;;;;19.50;91.62;100399.38;5053619;28;20033;-81
2022/08/04 01:27:02;;;;;;;4.30;1.42;;;;;;;19.54;92.07;100396.22;5053647;28;20079;-81
2022/08/04 01:29:39;;;;;;;4.28;1.27;;;;;;;19.51;92.37;100396.56;5053060;28;20041;-81
2022/08/04 01:32:32;;;;;;;5.00;1.40;;;;;;;19.50;92.32;100392.22;5053240;28;20033;-81
2022/08/04 01:35:07;;;;;;;6.82;1.17;;;;;;;19.55;92.90;100397.91;5046150;28;20061;-81
2022/08/04 01:37:52;;;;;;;6.47;1.42;;;;;;;19.58;92.38;100386.91;5053408;28;20025;-81
2022/08/04 01:40:20;;;;;;;12.80;2.15;;;;;;;19.47;92.13;100386.38;5053353;28;20028;-81
2022/08/04 01:42:48;;;;;;;5.28;1.38;;;;;;;19.37;92.49;100384.72;5053595;28;20434;-81
2022/08/04 01:45:14;;;;;;;6.40;1.52;;;;;;;19.32;93.26;100384.34;5053137;28;20040;-81
2022/08/04 01:47:47;;;;;;;8.48;2.95;;;;;;;19.46;92.85;100384.72;5052920;28;20029;-81
2022/08/04 01:50:12;;;;;;;7.03;1.63;;;;;;;19.42;92.59;100392.22;5052914;28;20029;-81
2022/08/04 01:52:40;;;;;;;10.07;1.75;;;;;;;19.40;92.93;100394.19;5053079;28;20029;-81
2022/08/04 01:55:09;;;;;;;7.50;1.50;;;;;;;19.38;93.27;100397.03;5053082;28;20028;-81
2022/08/04 01:57:57;;;;;;;12.80;1.70;;;;;;;19.46;92.42;100393.56;5051435;28;20415;-81
2022/08/04 02:00:26;;;;;;;5.40;1.65;;;;;;;19.35;93.00;100384.03;5052722;28;20493;-81
2022/08/04 02:02:52;;;;;;;5.65;1.58;;;;;;;19.17;91.90;100380.63;5052968;28;20426;-80
2022/08/04 02:05:19;;;;;;;5.55;2.20;;;;;;;19.25;92.72;100382.50;5052981;28;20442;-80
2022/08/04 02:08:03;;;;;;;5.13;1.33;;;;;;;19.20;92.82;100378.50;5052585;28;20029;-80
2022/08/04 02:10:45;;;;;;;10.10;2.53;;;;;;;19.14;92.08;100378.31;5052810;28;20110;-80
2022/08/04 02:13:21;;;;;;;8.55;1.60;;;;;;;19.10;93.26;100379.63;5065614;28;20036;-80
2022/08/04 02:16:11;;;;;;;6.07;1.60;;;;;;;19.23;92.79;100385.31;5072358;28;20035;-81
2022/08/04 02:19:08;;;;;;;15.07;2.28;;;;;;;19.12;92.44;100377.66;5071595;28;20032;-80
2022/08/04 02:21:34;;;;;;;6.70;1.90;;;;;;;18.97;93.58;100377.41;5066085;28;20124;-80
2022/08/04 02:24:05;;;;;;;6.38;2.00;;;;;;;19.05;93.13;100380.09;5072523;28;20066;-80
2022/08/04 02:26:32;;;;;;;10.30;2.05;;;;;;;19.00;93.75;100371.78;5069166;28;20562;-80
2022/08/04 02:29:18;;;;;;;9.10;1.67;;;;;;;19.06;93.89;100373.78;5052291;28;20041;-80
2022/08/04 02:31:48;;;;;;;6.22;1.35;;;;;;;18.98;94.18;100374.59;5052293;28;20029;-80
2022/08/04 02:34:38;;;;;;;5.65;1.67;;;;;;;18.88;95.13;100373.88;5052396;28;20050;-80
2022/08/04 02:37:05;;;;;;;9.50;1.70;;;;;;;18.87;95.37;100382.84;5052434;28;20029;-80
2022/08/04 02:39:34;;;;;;;8.02;1.52;;;;;;;18.94;95.37;100375.91;5052511;28;20036;-80
2022/08/04 02:42:02;;;;;;;10.02;2.50;;;;;;;18.83;94.54;100384.97;5052529;28;20025;-80
2022/08/04 02:44:29;;;;;;;7.68;2.13;;;;;;;18.79;93.96;100385.44;5052213;28;20521;-81
2022/08/04 02:46:55;;;;;;;3.95;1.50;;;;;;;18.80;94.65;100381.81;5052105;28;20100;-81
2022/08/04 02:49:22;;;;;;;7.80;1.83;;;;;;;18.76;93.51;100383.06;5051849;28;20036;-80
2022/08/04 02:51:52;;;;;;;10.88;2.40;;;;;;;18.76;94.17;100380.41;5052340;28;20025;-80
2022/08/04 02:54:23;;;;;;;10.27;1.87;;;;;;;18.61;95.33;100382.84;5051986;28;20017;-80
2022/08/04 02:56:51;;;;;;;8.20;1.60;;;;;;;18.60;95.43;100382.00;5051719;28;20178;-80
2022/08/04 02:59:19;;;;;;;5.97;1.75;;;;;;;18.65;95.75;100388.69;5051885;28;20112;-80
2022/08/04 03:01:44;;;;;;;9.60;1.85;;;;;;;18.66;95.19;100382.34;5052088;28;20368;-80
2022/08/04 03:04:09;;;;;;;8.50;1.85;;;;;;;18.65;94.79;100389.50;5067164;28;20434;-80
2022/08/04 03:06:53;;;;;;;8.18;2.33;;;;;;;18.74;94.35;100383.25;5051915;28;20032;-80
2022/08/04 03:09:55;;;;;;;8.32;1.60;;;;;;;18.64;94.50;100387.81;5051276;28;20111;-81
2022/08/04 03:13:02;;;;;;;4.75;1.55;;;;;;;18.46;94.93;100379.91;5051778;28;20035;-80
2022/08/04 03:15:57;;;;;;;9.73;2.55;;;;;;;18.26;94.91;100389.91;5051697;28;20885;-81
2022/08/04 03:19:02;;;;;;;10.07;1.77;;;;;;;18.26;95.47;100378.44;5051710;28;20079;-80
2022/08/04 03:21:50;;;;;;;8.52;2.58;;;;;;;18.31;95.43;100378.81;5051777;28;20471;-80
2022/08/04 03:24:43;;;;;;;11.95;2.33;;;;;;;18.42;94.82;100378.56;5051142;28;20043;-81
2022/08/04 03:27:19;;;;;;;5.28;1.92;;;;;;;18.33;95.06;100372.34;5052262;28;20029;-81
2022/08/04 03:29:54;;;;;;;5.53;2.03;;;;;;;18.21;93.66;100379.75;5055695;28;20052;-80
2022/08/04 03:32:37;;;;;;;7.63;1.77;;;;;;;18.21;94.31;100387.72;5055921;28;20017;-81
2022/08/04 03:35:12;;;;;;;6.10;2.03;;;;;;;18.07;95.00;100384.75;5055630;28;20549;-80
2022/08/04 03:37:55;;;;;;;6.95;2.38;;;;;;;18.30;94.80;100374.50;5055742;28;20032;-80
2022/08/04 03:40:29;;;;;;;5.78;1.90;;;;;;;18.13;95.52;100378.88;5054569;28;20025;-80
2022/08/04 03:43:22;;;;;;;7.47;2.15;;;;;;;18.30;95.99;100379.81;5055637;28;20112;-80
2022/08/04 03:46:32;;;;;;;7.72;2.45;;;;;;;18.20;96.13;100388.69;5053913;28;20028;-80
2022/08/04 03:49:25;;;;;;;4.30;1.98;;;;;;;18.22;95.92;100383.22;5044686;28;20033;-80
2022/08/04 03:55:40;;;;;;;6.72;2.53;;;;;;;18.20;97.79;100399.31;5049034;28;20496;-80
2022/08/04 03:58:36;;;;;;;7.63;2.40;;;;;;;18.36;97.99;100397.78;5055266;28;20093;-81
2022/08/04 04:01:15;;;;;;;7.95;2.40;;;;;;;18.40;97.70;100396.47;5055179;28;20471;-81
2022/08/04 04:03:46;;;;;;;10.82;3.08;;;;;;;18.35;97.73;100404.94;5055301;28;20063;-81
2022/08/04 04:06:45;;;;;;;8.35;3.08;;;;;;;18.53;95.61;100399.56;5055224;28;20021;-80
2022/08/04 04:09:27;;;;;;;5.10;1.70;;;;;;;18.43;93.31;100407.66;5055144;28;20502;-80
2022/08/04 04:12:22;;;;;;;3.38;1.50;;;;;;;18.36;95.73;100406.59;5054942;28;20033;-80
2022/08/04 04:15:05;;;;;;;5.90;1.52;;;;;;;18.13;95.40;100405.44;5054894;28;20082;-79
2022/08/04 04:17:49;;;;;;;8.93;2.35;;;;;;;18.30;96.27;100409.03;5054827;28;20041;-81
2022/08/04 04:20:36;;;;;;;7.30;1.95;;;;;;;18.36;96.13;100405.75;5054721;28;20475;-80
2022/08/04 04:23:39;;;;;;;9.43;1.77;;;;;;;18.33;96.27;100412.22;5053230;28;20544;-80
2022/08/04 04:26:36;;;;;;;5.70;2.10;;;;;;;18.21;95.74;100411.63;5054829;28;20475;-80
2022/08/04 04:29:12;;;;;;;6.22;1.60;;;;;;;18.03;96.74;100416.97;5054322;28;20029;-80
2022/08/04 04:32:09;;;;;;;8.90;2.55;;;;;;;18.03;97.87;100408.16;5054794;28;20021;-80
2022/08/04 04:34:44;;;;;;;5.40;1.60;;;;;;;18.03;97.25;100413.50;5054656;28;20021;-80
2022/08/04 04:37:37;;;;;;;5.50;1.85;;;;;;;18.11;97.58;100418.00;5054746;28;20112;-80
2022/08/04 04:40:19;;;;;;;3.75;1.17;;;;;;;18.01;99.28;100415.47;5054513;28;20037;-80
2022/08/04 04:42:50;;;;;;;4.78;1.55;;;;;;;17.88;98.76;100418.47;5054409;28;20029;-80
2022/08/04 04:45:28;;;;;;;8.77;1.92;;;;;;;18.04;98.04;100415.97;5054408;28;20507;-80
2022/08/04 04:48:02;;;;;;;5.60;1.75;;;;;;;18.04;98.63;100412.47;5054433;28;20505;-80
2022/08/04 04:50:53;;;;;;;5.75;1.30;;;;;;;18.20;98.20;100417.94;5054169;28;20040;-80
2022/08/04 04:53:26;;;;;;;7.73;1.80;;;;;;;18.14;97.17;100426.50;5053840;28;20017;-81
2022/08/04 04:56:21;;;;;;;5.05;1.25;;;;;;;18.20;97.48;100425.91;5054132;28;20258;-80
2022/08/04 04:58:51;;;;;;;4.75;1.40;;;;;;;18.03;98.01;100421.47;5054044;28;20063;-81
2022/08/04 05:01:19;;;;;;;4.93;1.52;;;;;;;18.02;98.76;100414.47;5054095;28;20107;-80
2022/08/04 05:03:54;;;;;;;7.28;1.90;;;;;;;17.83;100.00;100415.41;5054110;28;20082;-80
2022/08/04 05:06:39;;;;;;;8.20;2.08;;;;;;;18.02;100.00;100431.22;5054062;28;20032;-80
2022/08/04 05:09:34;;;;;;;6.00;1.60;;;;;;;18.18;99.69;100421.72;5053938;28;20398;-80
2022/08/04 05:12:20;;;;;;;5.95;1.45;;;;;;;18.14;98.88;100418.53;5053997;28;20026;-80
2022/08/04 05:14:48;;;;;;;8.15;1.73;;;;;;;18.16;99.07;100427.19;5042606;28;20082;-80
2022/08/04 05:17:20;;;;;;;5.00;1.35;;;;;;;18.15;99.09;100425.53;5053755;28;20479;-80
2022/08/04 05:19:52;;;;;;;3.95;1.33;;;;;;;18.12;98.75;100430.31;5053562;28;20029;-81
2022/08/04 05:22:29;;;;;;;3.95;1.75;;;;;;;18.25;99.31;100433.44;5053903;28;20021;-81
2022/08/04 05:25:13;;;;;;;5.35;1.70;;;;;;;18.28;99.21;100432.28;5073543;28;20039;-81
2022/08/04 05:28:00;;;;;;;8.65;1.73;;;;;;;18.37;100.00;100437.50;5073478;28;20025;-80
2022/08/04 05:30:29;;;;;;;7.97;1.73;;;;;;;18.40;99.89;100447.00;5073460;28;20039;-80
2022/08/04 05:33:02;;;;;;;6.68;1.83;;;;;;;18.48;99.41;100441.72;5073579;28;20074;-80
2022/08/04 05:35:34;;;;;;;4.72;1.67;;;;;;;18.60;99.67;100451.16;5073458;28;20025;-81
2022/08/04 05:38:02;;;;;;;5.18;1.40;;;;;;;18.62;98.73;100443.00;5066407;28;20033;-81
2022/08/04 05:40:28;;;;;;;6.65;2.20;;;;;;;18.63;99.02;100445.50;5053326;28;20031;-80
2022/08/04 05:42:55;;;;;;;3.40;1.38;;;;;;;18.66;99.05;100448.84;5053305;28;20031;-80
2022/08/04 05:45:22;;;;;;;4.63;1.83;;;;;;;18.72;99.26;100442.91;5053242;28;20466;-80
2022/08/04 05:47:48;;;;;;;7.57;2.33;;;;;;;18.72;99.29;100446.41;5053164;28;20021;-80
2022/08/04 05:50:14;;;;;;;7.55;2.33;;;;;;;18.80;99.00;100457.13;5052656;28;20025;-80
2022/08/04 05:52:41;;;;;;;5.30;1.55;;;;;;;18.82;99.54;100451.66;5052718;28;20021;-80
2022/08/04 05:55:11;;;;;;;5.75;1.50;;;;;;;18.95;98.24;100457.38;5053144;28;20027;-81
2022/08/04 05:57:40;;;;;;;4.60;1.80;;;;;;;18.97;97.75;100460.72;5052950;28;20052;-80
2022/08/04 06:00:07;;;;;;;7.53;1.77;;;;;;;18.96;98.92;100456.41;5052902;28;20029;-80
2022/08/04 06:02:34;;;;;;;4.00;1.73;;;;;;;19.01;99.11;100464.72;5051762;28;20039;-80
2022/08/04 06:05:01;;;;;;;4.90;1.33;;;;;;;19.10;99.49;100465.63;5053511;28;20107;-80
2022/08/04 06:07:26;;;;;;;5.50;1.58;;;;;;;19.21;99.46;100465.34;5052820;28;20021;-80
2022/08/04 06:09:52;;;;;;;6.57;1.88;;;;;;;19.36;99.30;100472.72;5053025;28;20021;-80
2022/08/04 06:12:25;;;;;;;9.32;1.90;;;;;;;19.55;99.54;100467.16;5052922;28;20414;-80
2022/08/04 06:14:54;;;;;;;5.30;1.63;;;;;;;19.65;98.34;100460.84;5056729;28;20067;-81
2022/08/04 06:17:26;;;;;;;8.48;1.85;;;;;;;19.83;98.09;100474.91;5065284;28;20033;-81
2022/08/04 06:19:54;;;;;;;3.88;1.45;;;;;;;19.92;98.01;100475.75;5063973;28;20033;-81
2022/08/04 06:22:22;;;;;;;4.20;1.40;;;;;;;20.03;97.54;100485.28;5047592;28;20029;-81
2022/08/04 06:24:51;;;;;;;7.55;2.20;;;;;;;20.11;97.28;100483.47;5057221;28;20053;-81
2022/08/04 06:27:17;;;;;;;5.72;1.35;;;;;;;20.31;97.58;100494.63;5067672;28;20107;-81
2022/08/04 06:29:44;;;;;;;4.65;1.67;;;;;;;20.49;97.35;100493.66;5066666;28;20036;-80
2022/08/04 06:32:23;;;;;;;6.82;1.90;;;;;;;20.75;96.46;100497.03;5067778;28;20111;-80
2022/08/04 06:34:58;;;;;;;8.48;2.00;;;;;;;21.10;95.69;100494.94;5056448;28;20033;-80
2022/08/04 06:37:25;;;;;;;9.60;1.98;;;;;;;21.56;95.39;100500.50;5047121;28;20029;-80
2022/08/04 06:39:52;;;;;;;8.55;2.25;;;;;;;22.54;88.90;100495.56;5047222;28;20047;-80
2022/08/04 06:42:21;;;;;;;9.60;2.13;;;;;;;23.43;86.64;100505.56;5048951;28;20082;-80
2022/08/04 06:44:50;;;;;;;8.07;2.55;;;;;;;24.03;78.80;100492.88;5066695;28;20036;-80
2022/08/04 06:47:20;;;;;;;8.05;1.98;;;;;;;23.98;80.79;100501.50;5067869;28;20037;-80
2022/08/04 06:49:48;;;;;;;11.73;2.83;;;;;;;23.93;80.61;100493.19;5056616;28;20086;-80
2022/08/04 06:52:16;;;;;;;10.65;3.13;;;;;;;24.08;77.70;100501.19;5067495;28;20029;-80
2022/08/04 06:54:51;;;;;;;7.43;2.22;;;;;;;24.22;78.64;100496.81;5068003;28;20025;-80
2022/08/04 06:57:20;;;;;;;10.48;2.15;;;;;;;24.11;76.96;100507.03;5071752;28;20036;-80
2022/08/04 06:59:54;;;;;;;6.40;2.30;;;;;;;23.97;78.49;100507.06;5072007;28;20032;-80
2022/08/04 07:02:28;;;;;;;9.38;2.30;;;;;;;23.90;79.07;100518.53;5051027;28;20390;-80
2022/08/04 07:04:54;;;;;;;9.35;1.80;;;;;;;24.04;77.48;100518.69;5051729;28;20104;-80
2022/08/04 07:07:22;;;;;;;8.13;1.63;;;;;;;23.97;79.46;100513.25;5058589;28;20074;-80
2022/08/04 07:09:48;;;;;;;14.57;2.63;;;;;;;24.17;77.97;100515.31;5071662;28;20171;-80
2022/08/04 07:12:19;;;;;;;11.60;2.20;;;;;;;24.29;78.27;100525.38;5071705;28;20497;-80
2022/08/04 07:14:45;;;;;;;5.53;2.22;;;;;;;24.63;76.24;100529.22;5056928;28;20585;-80
2022/08/04 07:17:12;;;;;;;10.85;2.45;;;;;;;24.71;75.04;100533.63;5056354;28;20466;-81
2022/08/04 07:19:38;;;;;;;4.63;1.95;;;;;;;24.90;73.16;100527.56;5056119;28;20021;-80
2022/08/04 07:22:06;;;;;;;7.43;2.05;;;;;;;24.97;72.47;100538.34;5071228;28;20024;-80
2022/08/04 07:24:32;;;;;;;6.35;1.80;;;;;;;25.23;71.16;100537.72;5064750;28;20028;-81
2022/08/04 07:26:58;;;;;;;10.15;1.98;;;;;;;25.27;70.85;100541.66;5082585;28;20044;-81
2022/08/04 07:29:25;;;;;;;8.20;1.80;;;;;;;24.97;70.40;100543.72;5071278;28;20029;-81
2022/08/04 07:31:51;;;;;;;9.13;3.00;;;;;;;25.13;68.99;100543.41;5071460;28;20032;-81
2022/08/04 07:34:18;;;;;;;5.95;2.10;;;;;;;24.37;72.03;100543.19;5071493;28;20021;-81
2022/08/04 07:36:43;;;;;;;11.13;2.20;;;;;;;24.66;70.59;100542.22;5068226;28;20033;-81
2022/08/04 07:39:09;;;;;;;5.85;1.63;;;;;;;24.86;69.52;100544.25;5051237;28;20025;-80
2022/08/04 07:41:35;;;;;;;7.40;1.83;;;;;;;24.43;70.98;100547.78;5064309;28;20017;-80
2022/08/04 07:44:02;;;;;;;9.50;2.55;;;;;;;24.45;71.32;100545.75;5051827;28;20513;-80
2022/08/04 07:46:28;;;;;;;6.78;1.77;;;;;;;24.51;71.17;100547.69;5051517;28;20025;-80
2022/08/04 07:48:53;;;;;;;9.43;1.73;;;;;;;25.05;69.34;100551.63;5057964;28;20378;-81
2022/08/04 07:51:20;;;;;;;6.13;2.05;;;;;;;25.61;67.35;100545.41;5064535;28;20037;-80
2022/08/04 07:53:46;;;;;;;5.95;1.85;;;;;;;25.86;66.77;100550.25;5051249;28;20175;-80
2022/08/04 07:56:15;;;;;;;5.10;1.63;;;;;;;26.36;65.69;100545.44;5050990;28;20032;-84
2022/08/04 07:58:40;;;;;;;9.73;2.78;;;;;;;25.88;64.60;100556.25;5051511;28;20040;-81
2022/08/04 08:01:08;;;;;;;8.55;2.08;;;;;;;26.38;63.69;100539.84;5055500;28;20029;-81
2022/08/04 08:03:34;;;;;;;8.05;2.28;;;;;;;25.80;63.95;100551.88;5069749;28;20044;-80
2022/08/04 08:05:59;;;;;;;8.48;2.00;;;;;;;25.70;63.06;100554.94;5060400;28;20021;-81
2022/08/04 08:08:25;;;;;;;10.25;2.13;;;;;;;25.71;62.62;100561.97;5049675;28;20070;-81
2022/08/04 08:10:50;;;;;;;3.65;1.42;;;;;;;25.58;62.99;100556.53;5051022;28;20051;-81
2022/08/04 08:13:16;;;;;;;6.40;2.53;;;;;;;25.61;63.36;100569.59;5051780;28;20039;-81
2022/08/04 08:15:46;;;;;;;5.13;1.50;;;;;;;25.98;63.06;100564.78;5053789;28;20021;-81
2022/08/04 08:18:12;;;;;;;5.38;1.45;;;;;;;27.74;57.10;100565.44;5065338;28;20025;-81
2022/08/04 08:20:38;;;;;;;4.00;1.30;;;;;;;27.49;53.43;100563.47;5074657;28;20032;-81
2022/08/04 08:23:03;;;;;;;6.07;1.80;;;;;;;28.26;54.49;100561.69;5076307;28;20024;-81
2022/08/04 08:25:31;;;;;;;7.97;1.77;;;;;;;28.52;51.09;100557.19;5074856;28;20115;-81
2022/08/04 08:27:56;;;;;;;8.43;1.92;;;;;;;27.43;53.72;100565.13;5074488;28;20028;-81
2022/08/04 08:30:23;;;;;;;7.55;1.65;;;;;;;27.33;53.76;100564.75;5072573;28;20036;-81
2022/08/04 08:32:49;;;;;;;10.38;1.67;;;;;;;27.39;53.63;100569.31;5066843;28;20031;-81
2022/08/04 08:35:15;;;;;;;6.03;1.70;;;;;;;27.08;54.47;100569.94;5054383;28;20100;-81
2022/08/04 08:37:51;;;;;;;5.80;1.52;;;;;;;26.61;53.71;100567.25;5058971;28;20056;-81
2022/08/04 08:40:32;;;;;;;3.75;1.70;;;;;;;26.28;54.78;100575.22;5074483;28;20021;-80
2022/08/04 08:43:34;;;;;;;6.97;1.10;;;;;;;26.14;55.77;100576.22;5068023;28;20033;-81
2022/08/04 08:46:24;;;;;;;9.10;1.50;;;;;;;25.36;57.70;100576.47;5053111;28;20075;-80
2022/08/04 08:49:20;;;;;;;3.22;1.30;;;;;;;25.63;56.52;100575.59;5059987;28;20817;-81
2022/08/04 08:52:12;;;;;;;5.97;1.15;;;;;;;25.49;58.00;100576.53;5053530;28;20033;-81
2022/08/04 08:54:50;;;;;;;5.22;1.33;;;;;;;25.25;57.14;100578.66;5067969;28;20102;-81
2022/08/04 08:57:38;;;;;;;4.22;1.33;;;;;;;26.00;55.93;100588.81;5069129;28;20036;-80
2022/08/04 09:00:16;;;;;;;5.85;1.42;;;;;;;27.37;52.97;100578.63;5064259;28;20033;-81
2022/08/04 09:02:56;;;;;;;4.32;1.20;;;;;;;27.18;53.81;100578.41;5068205;28;20036;-81
2022/08/04 09:05:42;;;;;;;5.80;1.25;;;;;;;26.83;53.18;100588.59;5050120;28;20043;-81
2022/08/04 09:08:45;;;;;;;4.28;1.08;;;;;;;27.46;52.14;100586.28;5048818;28;20029;-80
2022/08/04 09:11:45;;;;;;;4.85;1.50;;;;;;;26.76;53.94;100585.91;5049421;28;20392;-81
2022/08/04 09:14:13;;;;;;;5.60;0.70;;;;;;;26.77;51.63;100592.94;5052217;28;20114;-81
2022/08/04 09:16:49;;;;;;;9.02;1.25;;;;;;;25.60;54.40;100594.81;5063547;28;20492;-81
2022/08/04 09:19:20;;;;;;;5.88;1.02;;;;;;;25.95;53.95;100588.56;5058582;28;20125;-81
2022/08/04 09:22:01;;;;;;;;;;;;;;;26.00;54.91;100589.63;5060586;28;20523;-81
2022/08/04 09:24:58;;;;;;;5.13;1.13;;;;;;;26.29;54.29;100584.97;5048274;28;19959;-81
2022/08/04 09:27:27;;;;;;;5.10;1.30;;;;;;;26.14;54.42;100592.38;5049542;28;20028;-81
2022/08/04 09:29:58;;;;;;;3.97;1.00;;;;;;;25.98;55.11;100593.56;5057827;28;20036;-81
2022/08/04 09:32:37;;;;;;;5.25;1.33;;;;;;;26.73;54.22;100590.88;5068424;28;20421;-81
2022/08/04 09:35:15;;;;;;;2.95;1.00;;;;;;;27.20;51.62;100589.81;5067622;28;20039;-81
2022/08/04 09:37:53;;;;;;;4.85;1.00;;;;;;;27.07;52.88;100597.91;5068165;28;20124;-81
2022/08/04 09:40:44;;;;;;;5.25;1.50;;;;;;;29.10;46.72;100591.22;5076668;28;20036;-81
2022/08/04 09:43:39;;;;;;;3.45;0.98;;;;;;;28.94;45.63;100589.06;5052674;28;20559;-81
2022/08/04 09:46:12;;;;;;;1.98;0.70;;;;;;;29.25;43.42;100593.59;5067109;28;20036;-80
2022/08/04 09:48:53;;;;;;;4.00;0.77;;;;;;;30.23;42.41;100587.25;5069941;28;20166;-82
2022/08/04 09:51:37;;;;;;;2.35;0.40;;;;;;;31.13;42.22;100593.59;5056627;28;20025;-81
2022/08/04 09:54:11;;;;;;;4.95;0.50;;;;;;;30.79;39.68;100590.59;5057788;28;20055;-81
2022/08/04 09:57:01;;;;;;;5.20;0.80;;;;;;;29.72;42.36;100598.53;5069125;28;19919;-81
2022/08/04 09:59:32;;;;;;;6.30;1.00;;;;;;;29.35;42.37;100591.22;5054892;28;20029;-81
2022/08/04 10:02:06;;;;;;;4.45;0.82;;;;;;;28.92;42.95;100604.69;5073038;28;20039;-81
2022/08/04 10:04:35;;;;;;;3.35;0.60;;;;;;;30.40;42.33;100601.00;5060162;28;20550;-81
2022/08/04 10:07:27;;;;;;;4.30;0.95;;;;;;;31.10;41.15;100596.75;5070133;28;20559;-81
2022/08/04 10:10:13;;;;;;;3.20;0.90;;;;;;;32.07;38.60;100591.81;5052556;28;20050;-81
2022/08/04 10:13:10;;;;;;;4.85;0.90;;;;;;;32.18;36.98;100594.47;5070941;28;20110;-81
2022/08/04 10:15:42;;;;;;;5.90;0.75;;;;;;;31.65;38.22;100600.19;5063759;28;20036;-82
2022/08/04 10:18:37;;;;;;;3.15;0.98;;;;;;;32.12;38.35;100594.63;5064408;28;20040;-81
2022/08/04 10:21:16;;;;;;;4.10;1.13;;;;;;;32.04;38.71;100608.59;5059674;28;20020;-82
2022/08/04 10:23:50;;;;;;;3.50;0.98;;;;;;;33.15;36.36;100608.09;5072407;28;20063;-82
2022/08/04 10:26:32;;;;;;;5.00;1.20;;;;;;;32.94;36.66;100593.31;5059473;28;20037;-82
2022/08/04 10:29:18;;;;;;;5.53;0.90;;;;;;;32.94;36.19;100596.03;5052296;28;20052;-82
2022/08/04 10:32:16;;;;;;;4.88;1.10;;;;;;;31.75;37.36;100601.19;5052407;28;20028;-82
2022/08/04 10:34:57;;;;;;;4.25;0.93;;;;;;;32.86;35.58;100604.63;5052413;28;20050;-83
2022/08/04 10:37:27;;;;;;;3.03;0.88;;;;;;;31.47;35.86;100609.28;5056229;28;20175;-82
2022/08/04 10:43:24;;;;;;;3.67;0.70;;;;;;;30.43;38.01;100611.38;5064377;28;20506;-82
2022/08/04 10:45:51;;;;;;;;;;;;;;;32.42;35.20;100611.47;5052461;28;20087;-82
2022/08/04 10:48:46;;;;;;;2.08;0.80;;;;;;;32.73;34.21;100612.03;5050776;28;19913;-82
2022/08/04 10:51:14;;;;;;;3.17;0.68;;;;;;;32.33;34.90;100614.88;5051093;28;20434;-82
2022/08/04 10:53:42;;;;;;;2.85;0.57;;;;;;;32.78;33.60;100616.75;5051710;28;20367;-82
2022/08/04 10:56:17;;;;;;;2.25;0.40;;;;;;;31.51;34.26;100618.59;5056016;28;20116;-81
2022/08/04 10:58:54;;;;;;;1.38;0.30;;;;;;;31.44;35.22;100618.72;5058557;28;20428;-82
2022/08/04 11:01:28;;;;;;;2.92;0.30;;;;;;;32.70;33.23;100612.56;5052987;28;20027;-82
2022/08/04 11:04:05;;;;;;;2.03;0.30;;;;;;;32.39;31.71;100614.69;5071881;28;20099;-82
2022/08/04 11:06:33;;;;;;;1.73;0.43;;;;;;;32.08;31.38;100615.19;5071966;28;20028;-82
2022/08/04 11:09:01;;;;;;;3.88;0.80;;;;;;;33.76;29.13;100619.03;5070650;28;20029;-81
2022/08/04 11:11:48;;;;;;;3.25;0.52;;;;;;;34.32;28.81;100613.41;5071704;28;20021;-81
2022/08/04 11:14:25;;;;;;;2.83;0.47;;;;;;;34.35;28.72;100615.63;5076214;28;20034;-82
2022/08/04 11:16:56;;;;;;;1.23;0.32;;;;;;;35.53;27.55;100627.47;5068437;28;20021;-81
2022/08/04 11:19:45;;;;;;;1.65;0.77;;;;;;;36.28;26.19;100619.88;5066261;28;20032;-82
2022/08/04 11:22:14;;;;;;;;;;;;;;;36.52;25.10;100619.34;5054262;28;20032;-82
2022/08/04 11:24:54;;;;;;;2.78;0.50;;;;;;;37.09;25.41;100618.25;5063059;28;20590;-82
2022/08/04 11:27:38;;;;;;;;;;;;;;;36.76;25.39;100627.03;5051938;28;20028;-82
2022/08/04 11:30:08;;;;;;;0.82;0.38;;;;;;;37.51;24.65;100628.00;5071406;28;19959;-82
2022/08/04 11:32:52;;;;;;;1.48;0.30;;;;;;;37.93;25.35;100630.63;5069724;28;20036;-82
2022/08/04 11:35:31;;;;;;;2.85;0.68;;;;;;;37.44;24.44;100619.28;5059204;28;20034;-82
2022/08/04 11:38:45;;;;;;;2.33;0.65;;;;;;;35.75;24.83;100635.53;5052309;28;20430;-83
2022/08/04 11:41:16;;;;;;;4.95;0.65;;;;;;;35.42;26.95;100615.66;5047784;28;20706;-84
2022/08/04 11:43:43;;;;;;;;;;;;;;;33.47;27.28;100631.97;5051969;28;20483;-82
2022/08/04 11:46:17;;;;;;;2.90;0.40;;;;;;;34.65;26.97;100636.91;5052151;28;19916;-82
2022/08/04 11:48:59;;;;;;;3.22;0.50;;;;;;;35.77;25.27;100633.34;5052800;28;20179;-82
2022/08/04 11:51:27;;;;;;;0.40;0.20;;;;;;;35.57;25.26;100647.72;5056040;28;20433;-82
2022/08/04 11:53:53;;;;;;;1.92;0.43;;;;;;;35.60;25.10;100641.69;5055627;28;20025;-82
2022/08/04 11:56:18;;;;;;;;;;;;;;;34.24;25.77;100649.31;5055942;28;20029;-82
2022/08/04 11:58:44;;;;;;;;;;;;;;;34.32;26.03;100644.22;5060827;28;19917;-82
2022/08/04 12:01:15;;;;;;;;;;;;;;;33.85;26.58;100646.63;5075547;28;20007;-82
2022/08/04 12:03:40;;;;;;;;;;;;;;;34.57;27.32;100656.47;5071357;28;20373;-82
2022/08/04 12:06:29;;;;;;;0.90;0.20;;;;;;;35.15;26.24;100646.63;5055494;28;19928;-82
2022/08/04 12:09:22;;;;;;;3.85;0.50;;;;;;;34.34;27.28;100652.97;5055505;28;20166;-83
2022/08/04 12:12:15;;;;;;;7.20;0.60;;;;;;;34.35;26.20;100654.59;5054911;28;20029;-82
2022/08/04 12:14:50;;;;;;;1.15;0.25;;;;;;;34.69;26.16;100654.41;5043655;28;20441;-82
2022/08/04 12:17:25;;;;;;;2.58;0.47;;;;;;;34.17;27.56;100644.88;5055056;28;20104;-82